Time;durP1;ratioP1;P1;durP2;ratioP2;P2;SDS_P1;SDS_P2;PMS_P1;PMS_P2;Temp;Humidity;BMP_temperature;BMP_pressure;BME280_temperature;BME280_humidity;BME280_pressure;Samples;Min_cycle;Max_cycle;Signal;HPM_P1;HPM_P2
2022/05/25 00:02:06;;;;;;;11.18;9.98;;;;;;;;;;5074609;28;20098;-59
2022/05/25 00:04:32;;;;;;;12.98;9.48;;;;;;;;;;5080612;28;20040;-60
2022/05/25 00:06:57;;;;;;;14.55;12.27;;;;;;;;;;5089396;28;20031;-60
2022/05/25 00:09:23;;;;;;;10.10;8.68;;;;;;;;;;5088664;28;20052;-60
2022/05/25 00:11:48;;;;;;;13.32;10.55;;;;;;;;;;5087312;28;20028;-60
2022/05/25 00:14:13;;;;;;;10.20;9.00;;;;;;;;;;5088949;28;20031;-59
2022/05/25 00:16:39;;;;;;;12.00;9.15;;;;;;;;;;5090474;28;20253;-59
2022/05/25 00:21:48;;;;;;;12.50;10.30;;;;;;;;;;5078041;28;20185;-59
2022/05/25 00:24:13;;;;;;;14.23;11.20;;;;;;;;;;5089118;28;20099;-59
2022/05/25 00:26:39;;;;;;;10.52;9.43;;;;;;;;;;5090954;28;20028;-59
2022/05/25 00:29:04;;;;;;;13.32;10.18;;;;;;;;;;5092433;28;20036;-59
2022/05/25 00:31:30;;;;;;;15.75;13.10;;;;;;;;;;5091039;28;20459;-60
2022/05/25 00:33:56;;;;;;;13.63;10.65;;;;;;;;;;5092792;28;20460;-59
2022/05/25 00:36:21;;;;;;;14.05;11.85;;;;;;;;;;5092204;28;20028;-60
2022/05/25 00:38:47;;;;;;;13.82;10.63;;;;;;;;;;5091428;28;20024;-59
2022/05/25 00:41:12;;;;;;;13.48;11.10;;;;;;;;;;5091187;28;20030;-59
2022/05/25 00:43:37;;;;;;;13.30;10.77;;;;;;;;;;5090694;28;20426;-60
2022/05/25 00:46:08;;;;;;;13.90;10.87;;;;;;;;;;5079202;28;20277;-60
2022/05/25 00:48:33;;;;;;;14.55;12.40;;;;;;;;;;5077615;28;20699;-60
2022/05/25 00:51:12;;;;;;;13.50;10.93;;;;;;;;;;5076514;28;20081;-61
2022/05/25 00:53:37;;;;;;;12.05;9.43;;;;;;;;;;5077507;28;20054;-59
2022/05/25 00:56:04;;;;;;;13.65;11.15;;;;;;;;;;5077613;28;20012;-59
2022/05/25 00:58:29;;;;;;;14.55;11.32;;;;;;;;;;5078557;28;20031;-60
2022/05/25 01:00:55;;;;;;;16.90;11.88;;;;;;;;;;5085611;28;20374;-60
2022/05/25 01:03:20;;;;;;;12.45;10.43;;;;;;;;;;5091612;28;20395;-62
2022/05/25 01:05:50;;;;;;;14.52;11.98;;;;;;;;;;5071702;28;20029;-60
2022/05/25 01:08:25;;;;;;;12.82;11.45;;;;;;;;;;5092444;28;20091;-60
2022/05/25 01:10:50;;;;;;;12.30;10.93;;;;;;;;;;5090326;28;20028;-59
2022/05/25 01:13:15;;;;;;;16.30;12.97;;;;;;;;;;5091931;28;20037;-60
2022/05/25 01:15:59;;;;;;;15.47;12.63;;;;;;;;;;5090090;28;20030;-59
2022/05/25 01:18:33;;;;;;;21.92;13.63;;;;;;;;;;5089328;28;20300;-59
2022/05/25 01:21:31;;;;;;;17.63;12.57;;;;;;;;;;5074288;28;20069;-60
2022/05/25 01:24:02;;;;;;;17.83;14.57;;;;;;;;;;5053398;28;20025;-59
2022/05/25 01:26:36;;;;;;;15.57;12.88;;;;;;;;;;5077802;28;20074;-59
2022/05/25 01:29:01;;;;;;;15.73;12.48;;;;;;;;;;5071383;28;20051;-60
2022/05/25 01:31:49;;;;;;;14.57;11.20;;;;;;;;;;5077636;28;20025;-60
2022/05/25 01:34:37;;;;;;;13.85;12.20;;;;;;;;;;5071978;28;20052;-60
2022/05/25 01:37:09;;;;;;;16.67;13.07;;;;;;;;;;5071022;28;20438;-60
2022/05/25 01:39:38;;;;;;;14.32;11.75;;;;;;;;;;5077942;28;20025;-60
2022/05/25 01:42:07;;;;;;;13.50;11.45;;;;;;;;;;5075320;28;20028;-59
2022/05/25 01:44:38;;;;;;;14.35;12.85;;;;;;;;;;5076482;28;20376;-59
2022/05/25 01:47:10;;;;;;;13.43;10.77;;;;;;;;;;5075274;28;20024;-60
2022/05/25 01:49:55;;;;;;;13.10;11.35;;;;;;;;;;5076344;28;20083;-60
2022/05/25 01:52:24;;;;;;;13.63;11.35;;;;;;;;;;5075869;28;20043;-60
2022/05/25 01:54:52;;;;;;;11.93;10.20;;;;;;;;;;5088503;28;20018;-59
2022/05/25 01:57:20;;;;;;;13.75;11.50;;;;;;;;;;5089662;28;20372;-61
2022/05/25 01:59:45;;;;;;;16.35;13.45;;;;;;;;;;5073748;28;20032;-59
2022/05/25 02:04:55;;;;;;;14.48;12.20;;;;;;;;;;5088877;28;20240;-59
2022/05/25 02:07:26;;;;;;;13.45;11.38;;;;;;;;;;5072386;28;20531;-60
2022/05/25 02:10:04;;;;;;;13.30;11.57;;;;;;;;;;5085798;28;20119;-59
2022/05/25 02:12:43;;;;;;;13.02;10.85;;;;;;;;;;5089137;28;20024;-59
2022/05/25 02:15:23;;;;;;;15.48;11.27;;;;;;;;;;5070164;28;20024;-59
2022/05/25 02:18:04;;;;;;;13.25;10.23;;;;;;;;;;5089693;28;20027;-59
2022/05/25 02:20:47;;;;;;;13.48;11.18;;;;;;;;;;5083227;28;20027;-59
2022/05/25 02:23:33;;;;;;;10.65;9.20;;;;;;;;;;5071850;28;20396;-60
2022/05/25 02:26:09;;;;;;;10.32;8.45;;;;;;;;;;5074004;28;20411;-59
2022/05/25 02:28:43;;;;;;;12.90;11.30;;;;;;;;;;5073570;28;20053;-59
2022/05/25 02:31:11;;;;;;;14.70;12.65;;;;;;;;;;5075820;28;20124;-59
2022/05/25 02:33:39;;;;;;;14.07;11.77;;;;;;;;;;5076702;28;20039;-59
2022/05/25 02:36:07;;;;;;;13.40;10.35;;;;;;;;;;5074440;28;20020;-60
2022/05/25 02:38:33;;;;;;;11.32;9.73;;;;;;;;;;5076249;28;20029;-59
2022/05/25 02:41:03;;;;;;;10.50;9.40;;;;;;;;;;5074342;28;20017;-60
2022/05/25 02:43:29;;;;;;;13.05;10.82;;;;;;;;;;5075379;28;20029;-59
2022/05/25 02:45:54;;;;;;;12.93;10.13;;;;;;;;;;5054325;28;20379;-59
2022/05/25 02:48:19;;;;;;;11.07;9.60;;;;;;;;;;5072454;28;20145;-60
2022/05/25 02:50:45;;;;;;;13.23;10.97;;;;;;;;;;5075434;28;20347;-59
2022/05/25 02:53:11;;;;;;;12.93;10.20;;;;;;;;;;5074638;28;20318;-59
2022/05/25 02:55:37;;;;;;;14.48;11.00;;;;;;;;;;5075370;28;20328;-59
2022/05/25 02:58:02;;;;;;;13.25;10.05;;;;;;;;;;5075527;28;20099;-61
2022/05/25 03:00:28;;;;;;;12.57;10.27;;;;;;;;;;5080975;28;20028;-60
2022/05/25 03:02:54;;;;;;;11.83;10.50;;;;;;;;;;5088408;28;20024;-59
2022/05/25 03:05:20;;;;;;;12.70;10.27;;;;;;;;;;5088098;28;20616;-60
2022/05/25 03:07:45;;;;;;;12.25;10.93;;;;;;;;;;5073989;28;20035;-59
2022/05/25 03:10:10;;;;;;;13.82;11.48;;;;;;;;;;5053961;28;20025;-59
2022/05/25 03:12:36;;;;;;;14.13;11.38;;;;;;;;;;5075627;28;20029;-60
2022/05/25 03:15:01;;;;;;;15.35;11.25;;;;;;;;;;5074105;28;20028;-60
2022/05/25 03:17:26;;;;;;;14.02;10.98;;;;;;;;;;5056226;28;20025;-59
2022/05/25 03:19:53;;;;;;;12.93;10.07;;;;;;;;;;5075457;28;20024;-60
2022/05/25 03:22:19;;;;;;;11.95;10.20;;;;;;;;;;5086160;28;20376;-61
2022/05/25 03:24:44;;;;;;;12.73;10.95;;;;;;;;;;5070644;28;20107;-59
2022/05/25 03:27:10;;;;;;;12.83;10.87;;;;;;;;;;5089896;28;20111;-59
2022/05/25 03:29:35;;;;;;;15.65;12.43;;;;;;;;;;5087908;28;20284;-59
2022/05/25 03:32:00;;;;;;;13.30;11.00;;;;;;;;;;5088419;28;20074;-58
2022/05/25 03:34:26;;;;;;;11.73;9.70;;;;;;;;;;5088633;28;20098;-59
2022/05/25 03:36:54;;;;;;;14.43;11.52;;;;;;;;;;5082938;28;20103;-59
2022/05/25 03:39:22;;;;;;;10.75;9.25;;;;;;;;;;5074713;28;20028;-59
2022/05/25 03:41:47;;;;;;;13.95;11.38;;;;;;;;;;5070284;28;20086;-60
2022/05/25 03:44:14;;;;;;;13.23;10.60;;;;;;;;;;5089650;28;20480;-59
2022/05/25 03:46:39;;;;;;;12.18;10.05;;;;;;;;;;5086564;28;20075;-59
2022/05/25 03:49:04;;;;;;;13.15;10.63;;;;;;;;;;5089320;28;20467;-60
2022/05/25 03:51:30;;;;;;;11.65;9.48;;;;;;;;;;5091300;28;20036;-59
2022/05/25 03:53:56;;;;;;;12.10;10.07;;;;;;;;;;5075415;28;20032;-59
2022/05/25 03:56:21;;;;;;;11.85;8.98;;;;;;;;;;5093109;28;20080;-61
2022/05/25 03:58:46;;;;;;;11.83;9.33;;;;;;;;;;5092293;28;20024;-59
2022/05/25 04:01:12;;;;;;;9.43;7.70;;;;;;;;;;5079180;28;20253;-59
2022/05/25 04:03:37;;;;;;;9.52;7.93;;;;;;;;;;5079667;28;20390;-60
2022/05/25 04:06:02;;;;;;;11.60;8.40;;;;;;;;;;5078878;28;20107;-59
2022/05/25 04:08:28;;;;;;;10.52;8.50;;;;;;;;;;5079239;28;20309;-59
2022/05/25 04:10:53;;;;;;;10.13;8.50;;;;;;;;;;5078803;28;20379;-59
2022/05/25 04:13:20;;;;;;;10.00;8.32;;;;;;;;;;5077174;28;20265;-60
2022/05/25 04:15:45;;;;;;;10.70;8.57;;;;;;;;;;5078327;28;20020;-59
2022/05/25 04:18:10;;;;;;;9.27;7.97;;;;;;;;;;5078330;28;20039;-59
2022/05/25 04:20:36;;;;;;;12.15;8.60;;;;;;;;;;5074875;28;20020;-59
2022/05/25 04:23:02;;;;;;;9.23;7.95;;;;;;;;;;5074976;28;20468;-60
2022/05/25 04:25:28;;;;;;;11.02;8.52;;;;;;;;;;5077893;28;20036;-59
2022/05/25 04:27:56;;;;;;;12.10;8.93;;;;;;;;;;5082414;28;20028;-58
2022/05/25 04:30:23;;;;;;;9.52;7.68;;;;;;;;;;5076037;28;20036;-59
2022/05/25 04:32:49;;;;;;;11.02;8.55;;;;;;;;;;5068973;28;20021;-59
2022/05/25 04:35:15;;;;;;;8.75;7.85;;;;;;;;;;5086165;28;20088;-59
2022/05/25 04:37:49;;;;;;;10.40;8.43;;;;;;;;;;5089309;28;20096;-60
2022/05/25 04:40:16;;;;;;;9.50;7.85;;;;;;;;;;5084432;28;20107;-58
2022/05/25 04:42:43;;;;;;;11.43;8.73;;;;;;;;;;5078597;28;20012;-61
2022/05/25 04:45:09;;;;;;;10.10;8.55;;;;;;;;;;5074391;28;20032;-59
2022/05/25 04:47:35;;;;;;;11.07;8.20;;;;;;;;;;5057845;28;20391;-59
2022/05/25 04:50:00;;;;;;;8.85;7.55;;;;;;;;;;5078179;28;20054;-59
2022/05/25 04:52:27;;;;;;;9.75;7.10;;;;;;;;;;5075974;28;20442;-59
2022/05/25 04:54:52;;;;;;;11.20;8.23;;;;;;;;;;5085000;28;20029;-59
2022/05/25 04:57:20;;;;;;;11.18;8.18;;;;;;;;;;5055410;28;20081;-60
2022/05/25 04:59:50;;;;;;;9.23;7.00;;;;;;;;;;5055745;28;20028;-61
2022/05/25 05:02:15;;;;;;;9.80;7.60;;;;;;;;;;5085597;28;20020;-59
2022/05/25 05:04:41;;;;;;;10.07;7.45;;;;;;;;;;5074621;28;20047;-59
2022/05/25 05:07:06;;;;;;;9.65;7.68;;;;;;;;;;5070442;28;20114;-59
2022/05/25 05:09:32;;;;;;;8.67;6.40;;;;;;;;;;5063108;28;20484;-61
2022/05/25 05:11:58;;;;;;;10.02;7.57;;;;;;;;;;5074955;28;20332;-59
2022/05/25 05:14:23;;;;;;;8.73;6.65;;;;;;;;;;5078883;28;20028;-60
2022/05/25 05:16:54;;;;;;;7.97;6.73;;;;;;;;;;5058997;28;20025;-58
2022/05/25 05:19:19;;;;;;;10.82;7.38;;;;;;;;;;5053845;28;20268;-59
2022/05/25 05:21:45;;;;;;;8.65;7.25;;;;;;;;;;5072604;28;20028;-59
2022/05/25 05:24:11;;;;;;;7.38;6.25;;;;;;;;;;5074338;28;20099;-60
2022/05/25 05:26:36;;;;;;;7.70;6.57;;;;;;;;;;5074969;28;20038;-61
2022/05/25 05:29:02;;;;;;;9.47;7.40;;;;;;;;;;5079289;28;20052;-61
2022/05/25 05:31:27;;;;;;;7.72;6.18;;;;;;;;;;5076697;28;20268;-61
2022/05/25 05:33:53;;;;;;;8.53;5.93;;;;;;;;;;5076874;28;20031;-60
2022/05/25 05:36:21;;;;;;;6.32;5.25;;;;;;;;;;5074921;28;20261;-63
2022/05/25 05:38:49;;;;;;;6.03;5.18;;;;;;;;;;5078763;28;20107;-60
2022/05/25 05:41:16;;;;;;;7.65;5.20;;;;;;;;;;5077870;28;20495;-61
2022/05/25 05:43:41;;;;;;;6.22;4.55;;;;;;;;;;5086514;28;20019;-60
2022/05/25 05:46:07;;;;;;;6.28;4.20;;;;;;;;;;5081018;28;20024;-61
2022/05/25 05:48:34;;;;;;;6.93;4.88;;;;;;;;;;5075153;28;20035;-60
2022/05/25 05:51:01;;;;;;;4.80;4.00;;;;;;;;;;5075440;28;20044;-61
2022/05/25 05:53:27;;;;;;;4.18;3.78;;;;;;;;;;5058424;28;20039;-60
2022/05/25 05:55:53;;;;;;;4.53;3.92;;;;;;;;;;5075454;28;20464;-61
2022/05/25 05:58:18;;;;;;;6.05;4.47;;;;;;;;;;5082693;28;20044;-61
2022/05/25 06:00:44;;;;;;;5.30;4.13;;;;;;;;;;5079548;28;20032;-61
2022/05/25 06:03:09;;;;;;;5.65;4.10;;;;;;;;;;5081743;28;20101;-61
2022/05/25 06:05:35;;;;;;;6.68;4.28;;;;;;;;;;5064936;28;20046;-61
2022/05/25 06:08:07;;;;;;;4.70;3.58;;;;;;;;;;5075828;28;20056;-62
2022/05/25 06:10:33;;;;;;;4.07;3.67;;;;;;;;;;5081702;28;20020;-61
2022/05/25 06:12:59;;;;;;;6.10;3.97;;;;;;;;;;5073709;28;20039;-61
2022/05/25 06:20:52;;;;;;;6.30;4.57;;;;;;;;;;5071344;28;20024;-60
2022/05/25 06:23:17;;;;;;;5.05;3.70;;;;;;;;;;5077391;28;20378;-61
2022/05/25 06:25:42;;;;;;;8.43;4.50;;;;;;;;;;5075689;28;20064;-61
2022/05/25 06:28:07;;;;;;;5.13;3.90;;;;;;;;;;5074035;28;20038;-61
2022/05/25 06:30:33;;;;;;;6.13;4.28;;;;;;;;;;5076021;28;20272;-61
2022/05/25 06:32:58;;;;;;;6.20;4.22;;;;;;;;;;5072933;28;20067;-60
2022/05/25 06:35:24;;;;;;;6.30;4.20;;;;;;;;;;5084274;28;20068;-61
2022/05/25 06:37:49;;;;;;;5.03;3.58;;;;;;;;;;5071707;28;20035;-61
2022/05/25 06:40:14;;;;;;;5.63;3.70;;;;;;;;;;5083238;28;20036;-61
2022/05/25 06:42:41;;;;;;;5.38;4.20;;;;;;;;;;5076843;28;20047;-61
2022/05/25 06:45:08;;;;;;;4.95;3.40;;;;;;;;;;5069992;28;20028;-61
2022/05/25 06:47:34;;;;;;;5.78;4.38;;;;;;;;;;5089104;28;20020;-62
2022/05/25 06:50:00;;;;;;;3.60;3.10;;;;;;;;;;5081419;28;20024;-61
2022/05/25 06:52:25;;;;;;;5.57;3.50;;;;;;;;;;5071869;28;20733;-62
2022/05/25 06:54:54;;;;;;;5.33;3.00;;;;;;;;;;5073599;28;20048;-63
2022/05/25 06:57:19;;;;;;;5.10;3.67;;;;;;;;;;5073233;28;20265;-61
2022/05/25 06:59:44;;;;;;;6.05;3.35;;;;;;;;;;5074664;28;20012;-61
2022/05/25 07:02:09;;;;;;;5.13;3.60;;;;;;;;;;5081394;28;20096;-61
2022/05/25 07:04:35;;;;;;;4.15;2.80;;;;;;;;;;5072230;28;20261;-61
2022/05/25 07:07:01;;;;;;;3.80;2.78;;;;;;;;;;5075007;28;20028;-62
2022/05/25 07:09:26;;;;;;;8.23;3.40;;;;;;;;;;5075965;28;20075;-61
2022/05/25 07:11:52;;;;;;;9.83;3.20;;;;;;;;;;5085365;28;20391;-61
2022/05/25 07:14:17;;;;;;;4.28;3.20;;;;;;;;;;5071600;28;20025;-61
2022/05/25 07:16:42;;;;;;;4.60;3.00;;;;;;;;;;5088841;28;20028;-61
2022/05/25 07:19:07;;;;;;;4.97;2.90;;;;;;;;;;5079876;28;20075;-61
2022/05/25 07:21:33;;;;;;;4.15;2.70;;;;;;;;;;5073027;28;20303;-61
2022/05/25 07:24:00;;;;;;;6.57;2.63;;;;;;;;;;5074395;28;20024;-60
2022/05/25 07:26:26;;;;;;;4.93;2.90;;;;;;;;;;5084111;28;20115;-62
2022/05/25 07:28:51;;;;;;;3.85;2.75;;;;;;;;;;5080615;28;20021;-61
2022/05/25 07:31:22;;;;;;;4.38;2.85;;;;;;;;;;5080252;28;20553;-61
2022/05/25 07:33:49;;;;;;;3.55;2.13;;;;;;;;;;5079210;28;20464;-61
2022/05/25 07:36:14;;;;;;;4.00;2.30;;;;;;;;;;5087669;28;20371;-61
2022/05/25 07:38:43;;;;;;;2.65;2.42;;;;;;;;;;5077077;28;20029;-61
2022/05/25 07:41:09;;;;;;;5.00;2.60;;;;;;;;;;5086674;28;20129;-61
2022/05/25 07:43:34;;;;;;;4.25;3.00;;;;;;;;;;5092261;28;20110;-61
2022/05/25 07:45:59;;;;;;;5.28;2.72;;;;;;;;;;5090943;28;20103;-61
2022/05/25 07:48:25;;;;;;;3.28;2.65;;;;;;;;;;5069547;28;20032;-62
2022/05/25 07:50:51;;;;;;;4.35;3.00;;;;;;;;;;5078758;28;20031;-61
2022/05/25 07:56:03;;;;;;;4.22;2.58;;;;;;;;;;5088647;28;20035;-61
2022/05/25 07:58:29;;;;;;;4.45;2.53;;;;;;;;;;5056853;28;20065;-61
2022/05/25 08:00:55;;;;;;;4.50;2.47;;;;;;;;;;5078735;28;20093;-61
2022/05/25 08:06:05;;;;;;;5.10;3.08;;;;;;;;;;5087608;28;20161;-61
2022/05/25 08:08:30;;;;;;;3.20;2.67;;;;;;;;;;5078210;28;20135;-61
2022/05/25 08:10:58;;;;;;;4.60;2.60;;;;;;;;;;5088720;28;20024;-61
2022/05/25 08:13:24;;;;;;;4.53;2.90;;;;;;;;;;5080898;28;20020;-61
2022/05/25 08:15:50;;;;;;;5.18;3.20;;;;;;;;;;5085684;28;20024;-61
2022/05/25 08:18:17;;;;;;;3.05;2.75;;;;;;;;;;5091299;28;20028;-61
2022/05/25 08:20:43;;;;;;;3.88;3.17;;;;;;;;;;5091832;28;20493;-61
2022/05/25 08:23:09;;;;;;;3.78;2.83;;;;;;;;;;5073328;28;20116;-61
2022/05/25 08:25:35;;;;;;;4.43;2.63;;;;;;;;;;5093087;28;20511;-61
2022/05/25 08:28:01;;;;;;;5.30;3.00;;;;;;;;;;5085777;28;20032;-63
2022/05/25 08:30:26;;;;;;;3.58;2.80;;;;;;;;;;5079137;28;20419;-63
2022/05/25 08:32:51;;;;;;;5.30;3.77;;;;;;;;;;5086573;28;20099;-61
2022/05/25 08:35:17;;;;;;;4.95;3.25;;;;;;;;;;5075909;28;20237;-61
2022/05/25 08:37:42;;;;;;;4.13;3.35;;;;;;;;;;5060686;28;20037;-61
2022/05/25 08:40:09;;;;;;;4.97;3.53;;;;;;;;;;5071986;28;20387;-61
2022/05/25 08:42:39;;;;;;;4.63;3.00;;;;;;;;;;5061095;28;20265;-62
2022/05/25 08:45:05;;;;;;;4.22;3.25;;;;;;;;;;5087198;28;20062;-61
2022/05/25 08:47:44;;;;;;;5.40;4.03;;;;;;;;;;5078831;28;20055;-61
2022/05/25 08:50:10;;;;;;;3.38;3.08;;;;;;;;;;5091849;28;20038;-61
2022/05/25 08:52:36;;;;;;;4.50;3.30;;;;;;;;;;5065668;28;20016;-61
2022/05/25 08:55:02;;;;;;;4.97;3.22;;;;;;;;;;5073738;28;20020;-62
2022/05/25 08:57:32;;;;;;;6.20;5.15;;;;;;;;;;5081643;28;20056;-63
2022/05/25 09:00:06;;;;;;;4.68;2.70;;;;;;;;;;5075509;28;20028;-62
2022/05/25 09:02:31;;;;;;;4.00;2.80;;;;;;;;;;5080924;28;20020;-62
2022/05/25 09:05:18;;;;;;;3.03;2.63;;;;;;;;;;5085110;28;20380;-62
2022/05/25 09:07:43;;;;;;;3.70;2.95;;;;;;;;;;5075445;28;20104;-62
2022/05/25 09:10:10;;;;;;;5.77;3.00;;;;;;;;;;5078167;28;20434;-62
2022/05/25 09:12:47;;;;;;;4.50;3.45;;;;;;;;;;5076102;28;20392;-62
2022/05/25 09:15:16;;;;;;;2.42;2.22;;;;;;;;;;5075049;28;20082;-62
2022/05/25 09:17:43;;;;;;;5.07;2.72;;;;;;;;;;5074030;28;20044;-62
2022/05/25 09:20:12;;;;;;;4.00;2.85;;;;;;;;;;5087221;28;20391;-62
2022/05/25 09:22:38;;;;;;;4.10;2.70;;;;;;;;;;5055701;28;20124;-62
2022/05/25 09:25:04;;;;;;;4.78;2.83;;;;;;;;;;5074409;28;20109;-62
2022/05/25 09:27:36;;;;;;;4.07;2.90;;;;;;;;;;5061175;28;20032;-62
2022/05/25 09:30:02;;;;;;;4.60;2.78;;;;;;;;;;5088792;28;20039;-62
2022/05/25 09:32:40;;;;;;;3.08;2.72;;;;;;;;;;5090100;28;20035;-64
2022/05/25 09:35:12;;;;;;;2.95;2.53;;;;;;;;;;5074963;28;20022;-63
2022/05/25 09:37:46;;;;;;;3.45;2.92;;;;;;;;;;5074382;28;20490;-62
2022/05/25 09:40:19;;;;;;;4.03;3.05;;;;;;;;;;5068906;28;20028;-63
2022/05/25 09:42:49;;;;;;;5.50;3.80;;;;;;;;;;5069083;28;20025;-62
2022/05/25 09:45:14;;;;;;;4.13;3.53;;;;;;;;;;5072565;28;20467;-62
2022/05/25 09:47:41;;;;;;;5.57;3.67;;;;;;;;;;5073702;28;20030;-62
2022/05/25 09:50:07;;;;;;;4.35;3.47;;;;;;;;;;5084733;28;20056;-62
2022/05/25 09:52:36;;;;;;;2.90;2.60;;;;;;;;;;5093584;28;20024;-62
2022/05/25 09:55:05;;;;;;;3.42;2.70;;;;;;;;;;5081621;28;20032;-65
2022/05/25 09:57:36;;;;;;;3.67;3.22;;;;;;;;;;5073184;28;20020;-64
2022/05/25 10:00:18;;;;;;;4.30;3.60;;;;;;;;;;5073102;28;20384;-62
2022/05/25 10:02:58;;;;;;;5.50;3.72;;;;;;;;;;5074353;28;20070;-62
2022/05/25 10:05:25;;;;;;;4.25;3.00;;;;;;;;;;5074495;28;20044;-62
2022/05/25 10:07:50;;;;;;;5.47;3.78;;;;;;;;;;5072507;28;20039;-62
2022/05/25 10:10:22;;;;;;;5.10;3.40;;;;;;;;;;5065430;28;20029;-63
2022/05/25 10:12:58;;;;;;;7.78;3.50;;;;;;;;;;5052853;28;20032;-62
2022/05/25 10:15:31;;;;;;;3.70;3.30;;;;;;;;;;5056575;28;20016;-62
2022/05/25 10:17:59;;;;;;;4.38;2.90;;;;;;;;;;5072329;28;20020;-62
2022/05/25 10:20:45;;;;;;;3.78;3.17;;;;;;;;;;5073706;28;20471;-62
2022/05/25 10:23:13;;;;;;;6.25;4.28;;;;;;;;;;5072817;28;20440;-61
2022/05/25 10:25:46;;;;;;;7.53;3.83;;;;;;;;;;5072299;28;20024;-61
2022/05/25 10:28:17;;;;;;;6.68;4.35;;;;;;;;;;5074099;28;20452;-61
2022/05/25 10:36:48;;;;;;;4.00;3.60;;;;;;;;;;5074014;28;20430;-61
2022/05/25 10:39:14;;;;;;;6.03;4.47;;;;;;;;;;5068915;28;20020;-62
2022/05/25 10:41:43;;;;;;;5.75;4.50;;;;;;;;;;5071557;28;20356;-61
2022/05/25 10:44:21;;;;;;;4.18;3.40;;;;;;;;;;5093747;28;20047;-61
2022/05/25 10:46:54;;;;;;;3.85;3.05;;;;;;;;;;5078597;28;20020;-62
2022/05/25 10:49:21;;;;;;;5.25;3.58;;;;;;;;;;5074469;28;20024;-62
2022/05/25 10:51:49;;;;;;;6.70;4.05;;;;;;;;;;5072312;28;20029;-62
2022/05/25 10:54:46;;;;;;;5.43;4.25;;;;;;;;;;5071642;28;20016;-62
2022/05/25 10:57:17;;;;;;;5.95;3.75;;;;;;;;;;5070927;28;20028;-61
2022/05/25 11:00:03;;;;;;;5.38;3.67;;;;;;;;;;5070166;28;20021;-61
2022/05/25 11:02:49;;;;;;;6.07;4.00;;;;;;;;;;5071874;28;20395;-61
2022/05/25 11:05:33;;;;;;;5.57;3.75;;;;;;;;;;5071300;28;20027;-62
2022/05/25 11:08:22;;;;;;;3.33;3.00;;;;;;;;;;5071762;28;20114;-61
2022/05/25 11:11:09;;;;;;;4.45;3.22;;;;;;;;;;5060535;28;20111;-62
2022/05/25 11:13:53;;;;;;;3.40;3.10;;;;;;;;;;5084358;28;20025;-62
2022/05/25 11:16:19;;;;;;;5.45;3.47;;;;;;;;;;5069795;28;20031;-62
2022/05/25 11:18:50;;;;;;;6.65;4.25;;;;;;;;;;5074531;28;20023;-64
2022/05/25 11:21:36;;;;;;;4.22;3.30;;;;;;;;;;5074425;28;20082;-62
2022/05/25 11:24:16;;;;;;;4.18;3.10;;;;;;;;;;5075153;28;20479;-61
2022/05/25 11:27:00;;;;;;;3.25;2.95;;;;;;;;;;5100278;28;20055;-61
2022/05/25 11:29:44;;;;;;;3.90;3.50;;;;;;;;;;5072118;28;20535;-61
2022/05/25 11:32:24;;;;;;;5.25;3.65;;;;;;;;;;5071499;28;20104;-61
2022/05/25 11:35:11;;;;;;;6.28;4.25;;;;;;;;;;5087614;28;20017;-61
2022/05/25 11:37:54;;;;;;;6.05;3.90;;;;;;;;;;5076723;28;20025;-61
2022/05/25 11:40:20;;;;;;;3.75;2.95;;;;;;;;;;5074406;28;20064;-61
2022/05/25 11:42:58;;;;;;;4.07;3.03;;;;;;;;;;5075687;28;20051;-61
2022/05/25 11:45:42;;;;;;;3.53;2.97;;;;;;;;;;5080697;28;20016;-62
2022/05/25 11:48:26;;;;;;;4.63;3.03;;;;;;;;;;5081737;28;20376;-61
2022/05/25 11:51:30;;;;;;;4.97;3.05;;;;;;;;;;5083220;28;20035;-60
2022/05/25 11:54:07;;;;;;;4.72;3.13;;;;;;;;;;5046638;28;20017;-61
2022/05/25 11:56:42;;;;;;;4.57;2.97;;;;;;;;;;5016897;28;20588;-61
2022/05/25 11:59:24;;;;;;;3.88;2.83;;;;;;;;;;5058049;28;20037;-61
2022/05/25 12:01:53;;;;;;;4.00;2.75;;;;;;;;;;5083280;28;20066;-61
2022/05/25 12:04:34;;;;;;;4.53;2.60;;;;;;;;;;5073320;28;20421;-65
2022/05/25 12:06:59;;;;;;;2.90;2.28;;;;;;;;;;5073653;28;20024;-60
2022/05/25 12:09:43;;;;;;;3.07;2.73;;;;;;;;;;5085217;28;20105;-61
2022/05/25 12:12:17;;;;;;;4.25;2.88;;;;;;;;;;5066268;28;20054;-62
2022/05/25 12:14:49;;;;;;;5.80;3.65;;;;;;;;;;5089016;28;20542;-61
2022/05/25 12:17:27;;;;;;;3.85;3.45;;;;;;;;;;5087648;28;20028;-60
2022/05/25 12:19:53;;;;;;;3.50;3.00;;;;;;;;;;5090127;28;20078;-60
2022/05/25 12:22:21;;;;;;;3.53;3.22;;;;;;;;;;5088531;28;20020;-60
2022/05/25 12:24:49;;;;;;;3.75;3.35;;;;;;;;;;5088746;28;20021;-60
2022/05/25 12:27:17;;;;;;;5.93;3.50;;;;;;;;;;5091666;28;20020;-61
2022/05/25 12:29:45;;;;;;;3.58;3.13;;;;;;;;;;5089739;28;20038;-60
2022/05/25 12:32:11;;;;;;;4.07;3.25;;;;;;;;;;5092516;28;20086;-60
2022/05/25 12:34:43;;;;;;;3.15;2.80;;;;;;;;;;5089882;28;20031;-60
2022/05/25 12:37:09;;;;;;;5.05;3.33;;;;;;;;;;5089517;28;20081;-59
2022/05/25 12:39:41;;;;;;;4.10;3.03;;;;;;;;;;5090872;28;20054;-61
2022/05/25 12:42:24;;;;;;;4.50;3.08;;;;;;;;;;5091241;28;20099;-60
2022/05/25 12:50:38;;;;;;;2.40;2.00;;;;;;;;;;5076811;28;20094;-59
2022/05/25 12:53:30;;;;;;;4.40;2.60;;;;;;;;;;5077628;28;20036;-62
2022/05/25 12:55:56;;;;;;;4.32;3.13;;;;;;;;;;5069471;28;20486;-62
2022/05/25 12:58:36;;;;;;;4.72;3.17;;;;;;;;;;5083882;28;20134;-61
2022/05/25 13:01:04;;;;;;;4.95;3.35;;;;;;;;;;5078796;28;20090;-61
2022/05/25 13:03:35;;;;;;;3.38;3.00;;;;;;;;;;5081181;28;20395;-62
2022/05/25 13:06:05;;;;;;;6.90;2.53;;;;;;;;;;5077688;28;20028;-62
2022/05/25 13:08:49;;;;;;;3.70;2.40;;;;;;;;;;5073728;28;20044;-61
2022/05/25 13:11:29;;;;;;;3.28;2.55;;;;;;;;;;5087061;28;20032;-59
2022/05/25 13:13:55;;;;;;;5.53;3.15;;;;;;;;;;5072906;28;20025;-61
2022/05/25 13:16:39;;;;;;;4.68;3.30;;;;;;;;;;5075152;28;20332;-61
2022/05/25 13:19:14;;;;;;;4.47;3.40;;;;;;;;;;5072633;28;20028;-60
2022/05/25 13:21:40;;;;;;;3.58;2.85;;;;;;;;;;5078124;28;20050;-61
2022/05/25 13:24:09;;;;;;;4.57;2.78;;;;;;;;;;5091040;28;20028;-62
2022/05/25 13:26:52;;;;;;;3.65;2.63;;;;;;;;;;5072371;28;20024;-61
2022/05/25 13:29:24;;;;;;;4.47;2.53;;;;;;;;;;5080478;28;20506;-60
2022/05/25 13:32:08;;;;;;;3.83;2.83;;;;;;;;;;5087057;28;20030;-61
2022/05/25 13:34:33;;;;;;;3.15;2.47;;;;;;;;;;5077807;28;20021;-62
2022/05/25 13:37:01;;;;;;;6.65;3.90;;;;;;;;;;5076806;28;20074;-62
2022/05/25 13:39:28;;;;;;;4.80;3.85;;;;;;;;;;5075589;28;20023;-60
2022/05/25 13:41:54;;;;;;;4.03;3.00;;;;;;;;;;5084174;28;20024;-61
2022/05/25 13:44:22;;;;;;;5.97;3.45;;;;;;;;;;5071881;28;20502;-63
2022/05/25 13:46:54;;;;;;;4.22;3.50;;;;;;;;;;5084416;28;20103;-61
2022/05/25 13:49:22;;;;;;;5.03;4.05;;;;;;;;;;5072978;28;20677;-62
2022/05/25 13:51:48;;;;;;;7.13;4.32;;;;;;;;;;5076090;28;20090;-62
2022/05/25 13:54:21;;;;;;;3.42;3.10;;;;;;;;;;5085172;28;20066;-62
2022/05/25 13:56:46;;;;;;;4.03;3.25;;;;;;;;;;5076369;28;20402;-61
2022/05/25 13:59:12;;;;;;;4.10;3.47;;;;;;;;;;5080503;28;20036;-61
2022/05/25 14:01:37;;;;;;;4.00;3.05;;;;;;;;;;5076670;28;20024;-62
2022/05/25 14:04:21;;;;;;;3.50;3.00;;;;;;;;;;5072386;28;20028;-61
2022/05/25 14:06:47;;;;;;;5.07;3.70;;;;;;;;;;5054710;28;20257;-62
2022/05/25 14:11:56;;;;;;;6.30;3.72;;;;;;;;;;5082613;28;20063;-67
2022/05/25 14:14:30;;;;;;;11.07;4.13;;;;;;;;;;5061992;28;20052;-68
2022/05/25 14:16:57;;;;;;;7.65;3.17;;;;;;;;;;5089150;28;20047;-68
2022/05/25 14:19:24;;;;;;;9.43;3.70;;;;;;;;;;5088314;28;20027;-68
2022/05/25 14:21:50;;;;;;;5.57;4.78;;;;;;;;;;5077902;28;20032;-70
2022/05/25 14:24:17;;;;;;;5.68;3.78;;;;;;;;;;5074848;28;20467;-70
2022/05/25 14:26:53;;;;;;;5.28;3.10;;;;;;;;;;5075904;28;20436;-69
2022/05/25 14:29:21;;;;;;;5.35;3.83;;;;;;;;;;5074924;28;20028;-70
2022/05/25 14:31:48;;;;;;;7.47;4.53;;;;;;;;;;5085403;28;20021;-69
2022/05/25 14:34:18;;;;;;;11.77;7.57;;;;;;;;;;5090203;28;20031;-69
2022/05/25 14:36:48;;;;;;;9.18;4.65;;;;;;;;;;5087712;28;20035;-68
2022/05/25 14:39:15;;;;;;;7.88;4.60;;;;;;;;;;5090551;28;20039;-69
2022/05/25 14:41:52;;;;;;;7.03;4.03;;;;;;;;;;5087779;28;20483;-69
2022/05/25 14:44:47;;;;;;;7.35;4.63;;;;;;;;;;5072751;28;20119;-69
2022/05/25 14:47:25;;;;;;;12.88;8.23;;;;;;;;;;5066658;28;20040;-69
2022/05/25 14:49:55;;;;;;;8.73;5.65;;;;;;;;;;5087375;28;20032;-69
2022/05/25 14:52:22;;;;;;;7.80;4.65;;;;;;;;;;5086371;28;20024;-68
2022/05/25 14:54:47;;;;;;;7.90;4.00;;;;;;;;;;5075639;28;20438;-69
2022/05/25 14:57:15;;;;;;;5.22;3.47;;;;;;;;;;5076699;28;20020;-68
2022/05/25 14:59:45;;;;;;;4.47;2.30;;;;;;;;;;5079287;28;20043;-68
2022/05/25 15:02:32;;;;;;;3.45;2.47;;;;;;;;;;5056854;28;20025;-68
2022/05/25 15:04:57;;;;;;;4.43;2.50;;;;;;;;;;5074571;28;20021;-68
2022/05/25 15:07:24;;;;;;;2.40;1.90;;;;;;;;;;5075863;28;20027;-68
2022/05/25 15:09:50;;;;;;;3.25;1.90;;;;;;;;;;5077126;28;20102;-69
2022/05/25 15:12:20;;;;;;;3.40;2.17;;;;;;;;;;5071694;28;20440;-69
2022/05/25 15:20:48;;;;;;;4.15;1.67;;;;;;;;;;5070388;28;20028;-68
2022/05/25 15:23:19;;;;;;;2.35;1.70;;;;;;;;;;5055438;28;20020;-68
2022/05/25 15:25:46;;;;;;;2.97;2.00;;;;;;;;;;5069937;28;20020;-68
2022/05/25 15:28:31;;;;;;;3.28;1.65;;;;;;;;;;5072633;28;20021;-69